Time;durP1;ratioP1;P1;durP2;ratioP2;P2;SDS_P1;SDS_P2;PMS_P1;PMS_P2;Temp;Humidity;BMP_temperature;BMP_pressure;BME280_temperature;BME280_humidity;BME280_pressure;Samples;Min_cycle;Max_cycle;Signal;HPM_P1;HPM_P2
2023/09/07 00:01:52;;;;;;;6.75;5.15;;;;;;;17.91;88.71;102254.47;4884294;28;20047;-72
2023/09/07 00:04:19;;;;;;;6.20;5.18;;;;;;;17.85;88.90;102255.59;4888198;28;20131;-72
2023/09/07 00:06:45;;;;;;;4.35;3.60;;;;;;;17.84;88.55;102256.69;4886624;28;20040;-72
2023/09/07 00:09:13;;;;;;;5.68;4.43;;;;;;;17.75;88.88;102261.91;4896088;28;20539;-72
2023/09/07 00:11:46;;;;;;;4.40;4.00;;;;;;;17.73;88.64;102258.66;4896850;28;20040;-73
2023/09/07 00:14:22;;;;;;;7.38;4.53;;;;;;;17.67;88.90;102263.25;4877553;28;20042;-74
2023/09/07 00:16:54;;;;;;;7.03;5.00;;;;;;;17.62;88.96;102260.59;4893353;28;20055;-75
2023/09/07 00:19:20;;;;;;;5.82;4.60;;;;;;;17.59;88.74;102263.84;4886003;28;20048;-73
2023/09/07 00:21:46;;;;;;;9.13;5.15;;;;;;;17.51;89.91;102252.81;4882557;28;20056;-73
2023/09/07 00:24:20;;;;;;;7.43;5.25;;;;;;;17.49;89.46;102263.94;4870191;28;21308;-74
2023/09/07 00:26:51;;;;;;;6.30;4.97;;;;;;;17.45;89.37;102254.72;4882020;28;20049;-73
2023/09/07 00:29:31;;;;;;;5.18;4.53;;;;;;;17.38;89.67;102254.22;4870759;28;20394;-74
2023/09/07 00:32:09;;;;;;;7.07;4.60;;;;;;;17.41;90.04;102253.69;4880126;28;20584;-73
2023/09/07 00:34:43;;;;;;;4.80;4.30;;;;;;;17.41;90.10;102262.63;4878316;28;20035;-74
2023/09/07 00:37:14;;;;;;;6.18;5.60;;;;;;;17.39;90.29;102262.06;4902065;28;20039;-72
2023/09/07 00:39:44;;;;;;;5.22;4.72;;;;;;;17.37;90.58;102249.91;4897994;28;20037;-74
2023/09/07 00:42:13;;;;;;;6.70;5.50;;;;;;;17.35;90.58;102260.22;4870570;28;20058;-72
2023/09/07 00:44:47;;;;;;;6.47;4.05;;;;;;;17.34;90.55;102253.16;4889313;28;20460;-74
2023/09/07 00:47:30;;;;;;;6.40;5.30;;;;;;;17.35;91.09;102260.22;4897384;28;20044;-73
2023/09/07 00:49:59;;;;;;;7.43;5.22;;;;;;;17.32;90.59;102255.34;4901842;28;20056;-72
2023/09/07 00:52:39;;;;;;;7.80;6.05;;;;;;;17.28;91.49;102254.28;4882581;28;20076;-73
2023/09/07 00:55:13;;;;;;;7.13;6.43;;;;;;;17.18;91.59;102255.94;4883993;28;20127;-74
2023/09/07 00:57:43;;;;;;;5.88;5.22;;;;;;;17.17;91.11;102254.31;4886596;28;20043;-74
2023/09/07 01:00:24;;;;;;;6.53;5.85;;;;;;;17.12;90.46;102246.22;4888659;28;20143;-74
2023/09/07 01:03:01;;;;;;;6.90;4.75;;;;;;;17.10;90.16;102253.81;4897881;28;20051;-74
2023/09/07 01:08:52;;;;;;;5.80;4.57;;;;;;;17.00;90.15;102245.75;4879624;29;20036;-76
2023/09/07 01:11:24;;;;;;;5.32;4.05;;;;;;;17.01;89.76;102250.06;4860407;28;20060;-76
2023/09/07 01:13:56;;;;;;;5.88;4.47;;;;;;;16.95;90.14;102244.94;4886786;28;20842;-76
2023/09/07 01:16:25;;;;;;;10.65;5.00;;;;;;;16.97;89.85;102248.19;4846349;29;20125;-77
2023/09/07 01:19:04;;;;;;;5.80;5.30;;;;;;;16.90;90.24;102253.88;4863192;29;20040;-77
2023/09/07 01:21:40;;;;;;;4.95;4.28;;;;;;;16.86;90.38;102236.56;4840057;29;20131;-77
2023/09/07 01:24:15;;;;;;;5.70;5.03;;;;;;;16.86;90.20;102245.47;4874636;28;20041;-76
2023/09/07 01:26:49;;;;;;;4.90;4.40;;;;;;;16.82;89.10;102240.91;4847662;29;20059;-76
2023/09/07 01:29:19;;;;;;;6.53;5.00;;;;;;;16.79;89.62;102242.25;4821087;29;20053;-75
2023/09/07 01:32:00;;;;;;;6.30;5.32;;;;;;;16.79;89.99;102241.44;4835787;29;20045;-75
2023/09/07 01:34:47;;;;;;;9.38;4.88;;;;;;;16.75;90.73;102245.81;4851385;29;20485;-75
2023/09/07 01:37:23;;;;;;;7.22;5.45;;;;;;;16.75;90.58;102243.91;4841642;29;20059;-77
2023/09/07 01:39:57;;;;;;;7.40;5.75;;;;;;;16.74;90.72;102250.41;4829365;29;20049;-77
2023/09/07 01:42:38;;;;;;;8.15;5.82;;;;;;;16.68;90.76;102239.84;4834754;29;20076;-75
2023/09/07 01:45:06;;;;;;;5.45;4.00;;;;;;;16.65;90.37;102252.81;4846145;28;20744;-76
2023/09/07 01:47:32;;;;;;;5.38;4.85;;;;;;;16.66;89.68;102242.81;4849549;29;20048;-77
2023/09/07 01:49:58;;;;;;;5.60;4.93;;;;;;;16.63;90.51;102251.47;4880335;28;20037;-77
2023/09/07 01:52:24;;;;;;;5.80;5.18;;;;;;;16.60;90.38;102243.94;4856362;29;20060;-75
2023/09/07 01:54:49;;;;;;;;;;;;;;;16.56;90.57;102242.84;4864666;28;20132;-75
2023/09/07 01:57:15;;;;;;;5.15;4.43;;;;;;;16.49;90.37;102248.53;4867471;28;19920;-75
2023/09/07 01:59:41;;;;;;;5.72;4.63;;;;;;;16.49;90.56;102256.63;4866145;28;20102;-75
2023/09/07 02:02:07;;;;;;;;;;;;;;;16.48;90.62;102251.50;4864283;28;20048;-75
2023/09/07 02:04:33;;;;;;;6.95;4.75;;;;;;;16.41;90.53;102257.19;4865226;28;19920;-76
2023/09/07 02:06:59;;;;;;;5.88;4.00;;;;;;;16.36;90.21;102255.28;4847591;29;20045;-78
2023/09/07 02:09:24;;;;;;;8.45;4.68;;;;;;;16.34;89.79;102252.06;4880122;28;20064;-77
2023/09/07 02:11:50;;;;;;;5.30;4.60;;;;;;;16.31;89.72;102258.00;4868574;28;20044;-77
2023/09/07 02:14:15;;;;;;;;;;;;;;;16.28;90.29;102257.75;4863814;28;20091;-78
2023/09/07 02:16:41;;;;;;;4.40;3.92;;;;;;;16.23;90.36;102252.34;4849426;29;19919;-77
2023/09/07 02:19:07;;;;;;;6.65;4.95;;;;;;;16.20;90.43;102255.59;4881353;28;20573;-77
2023/09/07 02:21:33;;;;;;;;;;;;;;;16.20;90.87;102248.28;4862387;29;20041;-77
2023/09/07 02:23:58;;;;;;;6.88;4.25;;;;;;;16.17;90.72;102248.00;4853996;29;19990;-76
2023/09/07 02:26:25;;;;;;;8.50;4.38;;;;;;;16.11;90.79;102248.00;4867518;29;20519;-76
2023/09/07 02:28:52;;;;;;;5.57;5.03;;;;;;;16.09;90.99;102252.88;4861304;29;20037;-78
2023/09/07 02:31:17;;;;;;;;;;;;;;;16.08;91.51;102256.66;4867764;29;20185;-77
2023/09/07 02:33:43;;;;;;;5.40;4.88;;;;;;;16.03;91.32;102253.13;4850613;29;19924;-78
2023/09/07 02:36:09;;;;;;;6.65;5.70;;;;;;;16.04;90.95;102258.25;4853560;29;20049;-77
2023/09/07 02:38:35;;;;;;;;;;;;;;;16.00;91.22;102256.38;4856019;29;20766;-77
2023/09/07 02:41:02;;;;;;;7.35;4.57;;;;;;;15.97;91.30;102260.41;4904603;29;19970;-75
2023/09/07 02:43:29;;;;;;;9.05;4.90;;;;;;;15.97;91.13;102256.91;4861670;29;20112;-77
2023/09/07 02:45:56;;;;;;;7.47;5.50;;;;;;;15.97;91.29;102262.31;4860008;29;20053;-77
2023/09/07 02:48:22;;;;;;;6.30;5.40;;;;;;;15.95;91.41;102269.88;4874823;29;20108;-77
2023/09/07 02:50:49;;;;;;;;;;;;;;;15.94;91.71;102265.56;4869289;29;20117;-78
2023/09/07 02:53:15;;;;;;;7.15;5.15;;;;;;;15.87;91.75;102262.31;4867290;28;20396;-76
2023/09/07 02:55:41;;;;;;;6.93;5.78;;;;;;;15.86;91.73;102272.31;4865905;29;20044;-76
2023/09/07 02:58:08;;;;;;;;;;;;;;;15.86;91.61;102271.50;4868271;29;20033;-78
2023/09/07 03:00:34;;;;;;;6.47;4.50;;;;;;;15.79;91.03;102277.16;4866542;29;19919;-78
2023/09/07 03:03:01;;;;;;;6.10;4.30;;;;;;;15.77;91.30;102279.31;4850912;29;20045;-76
2023/09/07 03:05:28;;;;;;;5.10;4.22;;;;;;;15.73;91.44;102279.03;4851006;29;20111;-77
2023/09/07 03:07:54;;;;;;;;;;;;;;;15.70;91.29;102279.56;4929325;29;20032;-76
2023/09/07 03:10:21;;;;;;;5.82;4.65;;;;;;;15.65;91.50;102279.56;4865642;29;20034;-76
2023/09/07 03:12:47;;;;;;;6.97;4.85;;;;;;;15.63;91.92;102273.59;4865483;28;20037;-77
2023/09/07 03:15:15;;;;;;;;;;;;;;;15.59;91.94;102285.19;4843218;29;20545;-78
2023/09/07 03:17:41;;;;;;;5.22;4.05;;;;;;;15.54;91.70;102275.97;4866315;28;19974;-77
2023/09/07 03:20:13;;;;;;;;;;;;;;;15.56;91.79;102276.50;4850280;29;20155;-76
2023/09/07 03:22:43;;;;;;;10.98;4.07;;;;;;;15.51;91.66;102281.09;4856870;28;19927;-76
2023/09/07 03:25:10;;;;;;;8.13;4.57;;;;;;;15.48;91.80;102282.44;4853028;28;20593;-78
2023/09/07 03:27:39;;;;;;;7.57;4.38;;;;;;;15.46;91.71;102273.81;4856153;29;20068;-76
2023/09/07 03:30:09;;;;;;;5.80;4.07;;;;;;;15.45;91.64;102272.19;4845081;29;20080;-78
2023/09/07 03:32:36;;;;;;;5.88;3.83;;;;;;;15.45;91.63;102277.59;4877526;28;20033;-78
2023/09/07 03:35:09;;;;;;;7.90;4.72;;;;;;;15.45;91.95;102282.16;4868402;29;20045;-78
2023/09/07 03:37:35;;;;;;;8.05;4.60;;;;;;;15.44;92.07;102284.03;4907351;29;20041;-77
2023/09/07 03:40:01;;;;;;;7.45;4.60;;;;;;;15.42;92.36;102275.41;4858367;29;20103;-77
2023/09/07 03:42:27;;;;;;;6.40;4.47;;;;;;;15.44;92.16;102284.03;4864873;28;20049;-77
2023/09/07 03:44:53;;;;;;;;;;;;;;;15.45;92.37;102285.69;4848677;29;20648;-76
2023/09/07 03:47:19;;;;;;;8.52;5.10;;;;;;;15.41;93.09;102291.88;4887495;28;19915;-77
2023/09/07 03:49:45;;;;;;;7.53;4.53;;;;;;;15.41;92.43;102281.88;4856419;29;20047;-78
2023/09/07 03:52:11;;;;;;;8.68;5.78;;;;;;;15.39;92.60;102283.22;4876260;28;20117;-77
2023/09/07 03:54:37;;;;;;;;;;;;;;;15.39;92.78;102294.03;4871249;28;20042;-80
2023/09/07 03:57:03;;;;;;;7.35;4.82;;;;;;;15.36;92.59;102294.53;4878072;28;19959;-77
2023/09/07 03:59:30;;;;;;;7.32;5.57;;;;;;;15.33;92.45;102285.09;4872010;28;20047;-76
2023/09/07 04:01:55;;;;;;;9.82;4.82;;;;;;;15.30;92.44;102293.69;4844183;29;20049;-78
2023/09/07 04:04:22;;;;;;;10.30;5.93;;;;;;;15.25;92.16;102296.41;4863553;28;20159;-76
2023/09/07 04:06:48;;;;;;;5.18;4.05;;;;;;;15.25;92.03;102293.69;4869115;29;20369;-77
2023/09/07 04:09:14;;;;;;;;;;;;;;;15.24;92.04;102297.44;4873536;28;20860;-80
2023/09/07 04:11:40;;;;;;;6.43;4.75;;;;;;;15.21;92.02;102300.69;4895002;28;19925;-79
2023/09/07 04:14:06;;;;;;;;;;;;;;;15.19;92.12;102300.94;4861137;29;20076;-78
2023/09/07 04:16:31;;;;;;;6.88;4.60;;;;;;;15.17;92.26;102296.88;4855757;29;19981;-77
2023/09/07 04:18:57;;;;;;;5.93;5.32;;;;;;;15.13;92.14;102293.09;4882916;28;20068;-76
2023/09/07 04:21:23;;;;;;;5.47;4.03;;;;;;;15.11;92.17;102295.25;4880985;28;20091;-76
2023/09/07 04:23:49;;;;;;;5.82;4.18;;;;;;;15.13;91.83;102301.19;4862488;29;20037;-79
2023/09/07 04:26:15;;;;;;;;;;;;;;;15.10;91.97;102296.28;4888391;28;20052;-77
2023/09/07 04:28:41;;;;;;;7.30;5.28;;;;;;;15.07;92.15;102297.66;4918738;28;20032;-76
2023/09/07 04:31:06;;;;;;;;;;;;;;;15.08;92.37;102295.75;4879770;28;20234;-76
2023/09/07 04:33:33;;;;;;;6.50;4.50;;;;;;;15.05;92.02;102299.00;4849648;29;19920;-76
2023/09/07 04:36:13;;;;;;;5.32;4.45;;;;;;;15.03;92.17;102302.75;4872649;28;20065;-75
2023/09/07 04:38:41;;;;;;;7.35;5.82;;;;;;;15.01;92.42;102310.28;4872303;28;20079;-76
2023/09/07 04:41:11;;;;;;;;;;;;;;;15.03;92.20;102313.53;4849234;29;20183;-78
2023/09/07 04:43:40;;;;;;;6.32;5.03;;;;;;;15.02;92.51;102313.78;4880360;28;20392;-76
2023/09/07 04:46:06;;;;;;;6.65;5.95;;;;;;;15.05;93.23;102317.88;4863229;29;20632;-78
2023/09/07 04:48:34;;;;;;;9.00;6.70;;;;;;;15.03;94.50;102316.22;4854312;29;20366;-77
2023/09/07 04:51:05;;;;;;;9.00;6.90;;;;;;;15.05;94.51;102318.69;4861053;29;20049;-74
2023/09/07 04:53:33;;;;;;;8.95;6.50;;;;;;;15.07;94.47;102313.03;4886523;28;21064;-76
2023/09/07 04:55:59;;;;;;;8.43;6.32;;;;;;;15.08;95.16;102317.34;4852339;29;20048;-76
2023/09/07 04:58:25;;;;;;;8.77;5.68;;;;;;;15.09;94.74;102310.88;4851331;29;20757;-76
2023/09/07 05:00:51;;;;;;;9.82;5.85;;;;;;;15.11;94.15;102314.13;4853285;29;20081;-77
2023/09/07 05:03:17;;;;;;;9.40;5.85;;;;;;;15.15;94.14;102323.31;4912695;29;20041;-79
2023/09/07 05:05:43;;;;;;;;;;;;;;;15.17;94.31;102316.59;4863322;28;20029;-77
2023/09/07 05:08:09;;;;;;;7.15;5.70;;;;;;;15.18;94.09;102320.13;4864197;28;19926;-76
2023/09/07 05:10:36;;;;;;;7.65;6.28;;;;;;;15.20;94.03;102323.34;4856830;29;20037;-78
2023/09/07 05:13:02;;;;;;;8.73;6.63;;;;;;;15.24;94.45;102316.34;4857357;29;20045;-78
2023/09/07 05:15:28;;;;;;;8.60;6.97;;;;;;;15.26;94.80;102322.31;4850797;29;20025;-77
2023/09/07 05:17:55;;;;;;;7.38;6.55;;;;;;;15.29;95.19;102327.16;4849624;29;20029;-77
2023/09/07 05:20:21;;;;;;;8.00;7.20;;;;;;;15.32;95.44;102329.34;4871074;29;20058;-77
2023/09/07 05:22:48;;;;;;;7.07;6.03;;;;;;;15.34;94.84;102329.09;4871263;29;20570;-76
2023/09/07 05:25:13;;;;;;;;;;;;;;;15.39;95.23;102324.53;4832540;29;20121;-75
2023/09/07 05:27:39;;;;;;;8.48;7.47;;;;;;;15.42;95.68;102321.28;4852771;29;20045;-76
2023/09/07 05:30:05;;;;;;;;;;;;;;;15.46;95.66;102318.88;4879356;28;20502;-78
2023/09/07 05:32:33;;;;;;;7.97;6.93;;;;;;;15.47;95.74;102324.00;4859614;29;19963;-77
2023/09/07 05:34:59;;;;;;;8.05;6.60;;;;;;;15.50;96.24;102331.56;4877106;29;20041;-78
2023/09/07 05:37:25;;;;;;;;;;;;;;;15.56;96.47;102327.00;4870219;29;20471;-76
2023/09/07 05:39:50;;;;;;;9.52;8.55;;;;;;;15.62;96.83;102333.28;4844757;29;20387;-76
2023/09/07 05:42:16;;;;;;;;;;;;;;;15.66;96.88;102337.91;4876302;29;20490;-77
2023/09/07 05:44:41;;;;;;;7.97;6.47;;;;;;;15.71;97.19;102345.19;4859000;29;19919;-75
2023/09/07 05:47:07;;;;;;;;;;;;;;;15.76;97.11;102337.09;4850337;29;20052;-78
2023/09/07 05:49:33;;;;;;;8.63;7.68;;;;;;;15.78;97.02;102337.63;4874054;28;20018;-78
2023/09/07 05:51:58;;;;;;;;;;;;;;;15.85;97.02;102346.34;4862388;29;20098;-77
2023/09/07 05:54:24;;;;;;;7.53;6.72;;;;;;;15.89;96.93;102343.91;4867253;29;19923;-77
2023/09/07 05:56:50;;;;;;;;;;;;;;;15.99;97.00;102350.16;4849572;29;20452;-78
2023/09/07 05:59:15;;;;;;;7.78;6.53;;;;;;;16.05;96.65;102340.97;4856715;29;19923;-78
2023/09/07 06:01:41;;;;;;;;;;;;;;;16.14;96.32;102353.97;4862386;29;20847;-76
2023/09/07 06:04:07;;;;;;;8.93;7.22;;;;;;;16.24;96.35;102360.19;4846363;29;20364;-78
2023/09/07 06:06:33;;;;;;;;;;;;;;;16.36;96.34;102354.53;4856239;29;20478;-79
2023/09/07 06:08:59;;;;;;;8.35;6.70;;;;;;;16.44;95.84;102353.97;4873915;28;20296;-76
2023/09/07 06:11:25;;;;;;;;;;;;;;;16.58;95.56;102355.06;4844572;29;20533;-76
2023/09/07 06:13:51;;;;;;;7.95;6.28;;;;;;;16.65;95.06;102350.19;4855906;29;19928;-77
2023/09/07 06:16:17;;;;;;;;;;;;;;;16.82;94.95;102357.25;4849422;29;20059;-77
2023/09/07 06:18:43;;;;;;;9.50;6.95;;;;;;;16.91;94.57;102356.44;4858479;29;19923;-78
2023/09/07 06:21:08;;;;;;;;;;;;;;;17.04;93.92;102363.19;4868728;28;20049;-78
2023/09/07 06:23:34;;;;;;;9.13;6.95;;;;;;;17.12;93.45;102356.38;4914379;28;19939;-78
2023/09/07 06:26:00;;;;;;;;;;;;;;;17.25;92.68;102357.72;4875966;28;20053;-77
2023/09/07 06:28:27;;;;;;;9.18;7.18;;;;;;;17.33;92.71;102365.25;4834013;29;19920;-78
2023/09/07 06:30:53;;;;;;;7.88;6.78;;;;;;;17.42;91.85;102359.03;4848268;29;20061;-78
2023/09/07 06:33:18;;;;;;;;;;;;;;;17.57;91.48;102366.28;4860819;28;20049;-78
2023/09/07 06:35:45;;;;;;;7.60;6.70;;;;;;;17.68;91.32;102370.56;4914151;29;19924;-77
2023/09/07 06:38:10;;;;;;;7.45;6.70;;;;;;;17.77;90.44;102356.47;4850008;29;20037;-78
2023/09/07 06:40:37;;;;;;;11.70;6.75;;;;;;;17.89;90.53;102362.38;4882599;28;20044;-76
2023/09/07 06:43:05;;;;;;;8.27;6.13;;;;;;;17.95;90.49;102362.06;4853277;29;20050;-78
2023/09/07 06:45:35;;;;;;;7.82;7.03;;;;;;;18.05;89.98;102358.47;4835611;29;20040;-78
2023/09/07 06:48:02;;;;;;;8.32;6.43;;;;;;;18.12;89.79;102366.28;4836698;29;20041;-78
2023/09/07 06:50:28;;;;;;;8.25;6.43;;;;;;;18.19;89.03;102350.53;4885047;29;20502;-76
2023/09/07 06:52:54;;;;;;;8.07;5.50;;;;;;;18.32;88.47;102355.31;4861086;28;20048;-78
2023/09/07 06:55:20;;;;;;;7.07;6.35;;;;;;;18.44;87.96;102365.81;4856790;28;20116;-76
2023/09/07 06:57:46;;;;;;;6.60;5.18;;;;;;;18.55;88.00;102365.41;4866305;29;20375;-78
2023/09/07 07:00:12;;;;;;;;;;;;;;;18.57;89.34;102361.63;4851257;29;20037;-77
2023/09/07 07:02:39;;;;;;;9.05;6.85;;;;;;;18.59;87.58;102371.09;4877432;28;20743;-77
2023/09/07 07:05:05;;;;;;;;;;;;;;;18.71;87.45;102368.06;4838266;29;20426;-77
2023/09/07 07:07:31;;;;;;;6.85;6.10;;;;;;;18.78;86.53;102366.63;4973372;23;20494;-72
2023/09/07 07:09:56;;;;;;;;;;;;;;;18.92;85.44;102368.69;4962047;28;20048;-72
2023/09/07 07:12:23;;;;;;;8.15;5.82;;;;;;;18.97;86.41;102368.63;4942488;28;20101;-73
2023/09/07 07:14:49;;;;;;;8.02;5.40;;;;;;;19.05;85.29;102368.00;4939844;28;20048;-72
2023/09/07 07:17:18;;;;;;;6.30;5.70;;;;;;;19.16;85.13;102374.13;4873626;28;20036;-72
2023/09/07 07:19:43;;;;;;;6.70;6.10;;;;;;;19.26;84.59;102366.69;4866423;28;20041;-72
2023/09/07 07:22:09;;;;;;;6.00;5.22;;;;;;;19.42;84.04;102369.22;4957502;28;20033;-73
2023/09/07 07:24:35;;;;;;;8.27;6.47;;;;;;;19.58;83.48;102378.84;4921836;28;20041;-74
2023/09/07 07:27:03;;;;;;;5.90;4.75;;;;;;;19.70;82.61;102379.22;4901621;28;20398;-72
2023/09/07 07:29:31;;;;;;;7.82;6.32;;;;;;;19.81;82.08;102374.47;4865724;28;20128;-73
2023/09/07 07:31:56;;;;;;;7.53;5.40;;;;;;;19.90;81.96;102378.94;4897864;28;20191;-73
2023/09/07 07:34:22;;;;;;;7.32;5.40;;;;;;;19.97;81.76;102380.50;4886593;28;20397;-74
2023/09/07 07:36:48;;;;;;;5.80;4.65;;;;;;;20.11;80.79;102376.75;4890560;28;20116;-74
2023/09/07 07:39:15;;;;;;;6.95;5.25;;;;;;;20.25;80.50;102374.09;4881968;28;20094;-72
2023/09/07 07:41:41;;;;;;;7.95;6.15;;;;;;;20.35;79.59;102370.44;4899965;28;20036;-73
2023/09/07 07:44:08;;;;;;;6.10;5.07;;;;;;;20.49;80.60;102373.22;4867584;28;20399;-72
2023/09/07 07:46:33;;;;;;;6.80;6.20;;;;;;;20.56;80.86;102374.47;4882978;28;20083;-74
2023/09/07 07:48:59;;;;;;;6.15;5.32;;;;;;;20.71;79.04;102376.91;4894958;28;20186;-73
2023/09/07 07:51:26;;;;;;;5.80;5.13;;;;;;;20.84;78.85;102375.34;4882890;28;20514;-74
2023/09/07 07:53:54;;;;;;;5.72;4.75;;;;;;;20.94;77.68;102375.16;4882873;28;20795;-72
2023/09/07 07:56:20;;;;;;;6.95;5.45;;;;;;;21.02;77.28;102370.13;4913857;28;20044;-73
2023/09/07 07:58:48;;;;;;;6.13;5.53;;;;;;;21.09;76.80;102376.81;4868270;28;20032;-73
2023/09/07 08:01:16;;;;;;;7.03;5.53;;;;;;;21.23;76.61;102380.34;4901941;28;20044;-74
2023/09/07 08:03:43;;;;;;;6.93;5.60;;;;;;;21.34;76.59;102375.53;4899806;28;20029;-74
2023/09/07 08:06:09;;;;;;;9.20;4.82;;;;;;;21.41;76.81;102378.66;4865360;28;20055;-75
2023/09/07 08:08:34;;;;;;;8.50;5.25;;;;;;;21.50;75.15;102387.75;4884130;28;20036;-73
2023/09/07 08:11:05;;;;;;;5.95;5.35;;;;;;;21.61;75.84;102382.91;4869374;28;20036;-73
2023/09/07 08:13:33;;;;;;;5.40;4.90;;;;;;;21.65;74.94;102377.63;4920647;28;20052;-73
2023/09/07 08:16:01;;;;;;;8.60;5.25;;;;;;;21.72;74.15;102367.13;4882687;28;20048;-75
2023/09/07 08:18:30;;;;;;;5.38;4.55;;;;;;;21.85;73.15;102373.66;4866235;28;20040;-74
2023/09/07 08:20:55;;;;;;;5.68;4.88;;;;;;;21.95;73.82;102371.53;4902073;28;20505;-73
2023/09/07 08:23:24;;;;;;;7.20;4.97;;;;;;;22.02;73.74;102377.34;4872690;28;20052;-75
2023/09/07 08:25:52;;;;;;;5.97;5.03;;;;;;;22.11;74.37;102374.72;4860471;29;20146;-77
2023/09/07 08:28:20;;;;;;;5.78;4.90;;;;;;;22.22;74.55;102367.13;4886272;28;20040;-74
2023/09/07 08:30:48;;;;;;;6.07;5.47;;;;;;;22.36;73.42;102367.06;4970394;28;20040;-73
2023/09/07 08:33:14;;;;;;;6.03;5.07;;;;;;;22.49;71.43;102369.72;4866242;28;20474;-74
2023/09/07 08:35:44;;;;;;;6.47;5.88;;;;;;;22.58;71.76;102367.06;4888332;28;20536;-74
2023/09/07 08:38:11;;;;;;;7.10;4.40;;;;;;;22.69;70.11;102370.31;4918950;28;20056;-75
2023/09/07 08:40:40;;;;;;;8.00;5.90;;;;;;;22.82;70.02;102363.97;4885736;28;20052;-73
2023/09/07 08:43:09;;;;;;;6.47;5.75;;;;;;;22.95;69.50;102365.03;4887493;28;20044;-73
2023/09/07 08:45:45;;;;;;;5.80;5.15;;;;;;;23.08;69.54;102364.13;4916581;28;20025;-72
2023/09/07 08:48:13;;;;;;;7.07;5.20;;;;;;;23.12;68.37;102362.38;4885088;28;20047;-72
2023/09/07 08:50:42;;;;;;;7.60;5.45;;;;;;;23.23;69.14;102362.88;4870253;28;20049;-74
2023/09/07 08:53:08;;;;;;;6.07;5.47;;;;;;;23.27;68.39;102364.69;4904814;28;20033;-73
2023/09/07 08:55:34;;;;;;;7.90;5.53;;;;;;;23.37;66.34;102363.56;4916495;28;20044;-72
2023/09/07 08:57:59;;;;;;;6.57;5.55;;;;;;;23.45;65.49;102368.28;4883616;28;20091;-74
2023/09/07 09:00:25;;;;;;;6.50;5.10;;;;;;;23.58;65.34;102361.88;4898686;28;20415;-72
2023/09/07 09:02:54;;;;;;;5.82;5.22;;;;;;;23.65;64.59;102362.25;4871035;28;20120;-76
2023/09/07 09:05:20;;;;;;;7.32;5.75;;;;;;;23.80;65.64;102365.63;4894287;28;20463;-73
2023/09/07 09:07:45;;;;;;;5.97;5.28;;;;;;;23.81;63.83;102364.50;4888612;28;20044;-74
2023/09/07 09:10:11;;;;;;;7.22;4.78;;;;;;;23.89;64.36;102360.97;4891960;28;20032;-73
2023/09/07 09:12:46;;;;;;;5.25;4.75;;;;;;;23.97;64.05;102358.22;4883052;28;20036;-73
2023/09/07 09:15:11;;;;;;;6.88;5.35;;;;;;;24.07;62.69;102359.06;4906356;28;20078;-73
2023/09/07 09:17:37;;;;;;;7.32;5.80;;;;;;;24.10;63.40;102367.41;4856311;28;20124;-73
2023/09/07 09:20:05;;;;;;;7.07;5.07;;;;;;;24.20;63.66;102361.63;4880943;28;20784;-76
2023/09/07 09:22:31;;;;;;;6.97;5.53;;;;;;;24.26;62.46;102359.53;4907783;28;20150;-73
2023/09/07 09:24:56;;;;;;;6.25;4.63;;;;;;;24.27;61.99;102354.84;4871269;28;20505;-74
2023/09/07 09:27:22;;;;;;;6.28;4.70;;;;;;;24.32;64.37;102352.75;4869627;28;20044;-73
2023/09/07 09:29:50;;;;;;;5.13;4.63;;;;;;;24.40;63.50;102353.91;4900282;28;20060;-75
2023/09/07 09:32:16;;;;;;;8.45;5.00;;;;;;;24.54;62.96;102360.00;4886923;28;20032;-73
2023/09/07 09:34:43;;;;;;;5.45;4.95;;;;;;;24.63;61.98;102357.22;4883774;28;20044;-75
2023/09/07 09:37:14;;;;;;;8.32;5.10;;;;;;;24.67;61.19;102361.75;4891894;28;20086;-76
2023/09/07 09:39:42;;;;;;;7.25;5.18;;;;;;;24.74;61.33;102362.03;4881855;28;20448;-75
2023/09/07 09:42:08;;;;;;;6.95;4.78;;;;;;;24.80;60.98;102356.41;4872397;29;20037;-74
2023/09/07 09:44:36;;;;;;;9.32;5.00;;;;;;;24.90;59.93;102354.09;4884390;28;20044;-74
2023/09/07 09:47:03;;;;;;;7.88;4.93;;;;;;;25.01;60.06;102357.28;4888017;28;20503;-73
2023/09/07 09:49:30;;;;;;;7.78;5.15;;;;;;;25.03;59.79;102360.50;4899363;28;20075;-74
2023/09/07 09:51:58;;;;;;;10.05;4.90;;;;;;;25.00;57.87;102350.19;4882053;28;20095;-75
2023/09/07 09:54:26;;;;;;;7.97;5.10;;;;;;;25.10;57.16;102357.25;4885011;28;20084;-72
2023/09/07 09:56:53;;;;;;;8.68;4.78;;;;;;;25.15;57.99;102346.91;4853896;28;20098;-74
2023/09/07 09:59:19;;;;;;;6.07;4.32;;;;;;;25.18;57.21;102351.72;4897588;28;20121;-75
2023/09/07 10:01:50;;;;;;;7.35;5.05;;;;;;;25.27;57.67;102333.31;4906959;28;20040;-74
2023/09/07 10:04:17;;;;;;;5.80;4.38;;;;;;;25.37;57.65;102336.81;4872106;28;20044;-75
2023/09/07 10:07:01;;;;;;;5.43;3.97;;;;;;;25.53;56.09;102335.88;4887419;28;20036;-75
2023/09/07 10:09:32;;;;;;;8.60;4.50;;;;;;;25.52;55.97;102330.72;4882294;28;20095;-74
2023/09/07 10:11:59;;;;;;;5.82;4.20;;;;;;;25.59;55.42;102339.22;4909249;28;20063;-75
2023/09/07 10:14:25;;;;;;;6.75;4.97;;;;;;;25.60;55.59;102329.84;4884977;28;20048;-74
2023/09/07 10:16:55;;;;;;;5.65;4.18;;;;;;;25.69;56.22;102327.06;4868322;28;20048;-75
2023/09/07 10:19:26;;;;;;;7.50;4.30;;;;;;;25.79;55.08;102338.47;4884684;28;20055;-74
2023/09/07 10:21:55;;;;;;;5.55;3.90;;;;;;;25.93;55.00;102332.69;4897186;28;20029;-73
2023/09/07 10:24:35;;;;;;;8.45;4.47;;;;;;;25.99;52.94;102336.06;4884185;28;20747;-74
2023/09/07 10:27:07;;;;;;;5.95;4.15;;;;;;;26.03;53.72;102320.53;4922920;28;20101;-72
2023/09/07 10:29:54;;;;;;;6.60;3.72;;;;;;;26.14;52.84;102338.16;4912044;28;20106;-74
2023/09/07 10:32:19;;;;;;;6.05;4.03;;;;;;;26.25;53.61;102322.88;4848315;29;20149;-73
2023/09/07 10:34:46;;;;;;;6.40;4.68;;;;;;;26.28;53.39;102327.72;4868872;28;20129;-73
2023/09/07 10:37:14;;;;;;;6.53;4.13;;;;;;;26.38;53.11;102321.00;4869767;28;20033;-74
2023/09/07 10:39:44;;;;;;;4.60;3.83;;;;;;;26.38;52.22;102321.78;4885120;28;20036;-73
2023/09/07 10:42:23;;;;;;;5.97;3.95;;;;;;;26.46;51.59;102311.88;4873828;28;20043;-76
2023/09/07 10:44:50;;;;;;;5.85;4.13;;;;;;;26.48;51.30;102315.06;4871729;28;20032;-74
2023/09/07 10:47:16;;;;;;;5.47;3.80;;;;;;;26.44;52.34;102314.16;4883455;28;20044;-73
2023/09/07 10:49:42;;;;;;;5.70;4.50;;;;;;;26.46;51.35;102311.06;4912890;28;20033;-74
2023/09/07 10:52:08;;;;;;;5.15;3.72;;;;;;;26.49;52.58;102305.72;4869129;28;20036;-74
2023/09/07 10:54:35;;;;;;;4.18;3.78;;;;;;;26.50;51.02;102310.06;4900568;28;20048;-74
2023/09/07 10:57:17;;;;;;;4.95;4.13;;;;;;;26.56;50.48;102294.16;4951333;28;20043;-76
2023/09/07 10:59:46;;;;;;;4.22;3.63;;;;;;;26.62;50.10;102306.50;4934683;28;20041;-74
2023/09/07 11:02:12;;;;;;;5.03;3.63;;;;;;;26.77;51.32;102294.06;4850655;29;20044;-74
2023/09/07 11:04:38;;;;;;;6.03;4.07;;;;;;;26.82;49.96;102296.56;4884718;28;20079;-77
2023/09/07 11:07:04;;;;;;;5.82;4.28;;;;;;;26.77;50.00;102289.38;4875960;28;20679;-74
2023/09/07 11:09:31;;;;;;;5.47;3.25;;;;;;;26.65;49.23;102289.34;4884374;28;20127;-77
2023/09/07 11:11:56;;;;;;;5.53;4.15;;;;;;;26.66;49.36;102293.72;4937816;28;20055;-73
2023/09/07 11:14:22;;;;;;;4.07;3.38;;;;;;;26.67;50.01;102295.31;4892715;28;20048;-73
2023/09/07 11:16:48;;;;;;;5.68;4.13;;;;;;;26.72;50.27;102297.84;4932619;28;20047;-75
2023/09/07 11:19:15;;;;;;;5.15;3.60;;;;;;;26.73;49.63;102293.13;4888892;28;20489;-75
2023/09/07 11:21:40;;;;;;;4.30;3.53;;;;;;;26.65;49.79;102286.63;4870593;28;20072;-78
2023/09/07 11:24:08;;;;;;;4.55;3.78;;;;;;;26.77;50.06;102281.13;4870023;28;20127;-75
2023/09/07 11:26:47;;;;;;;4.82;3.92;;;;;;;26.81;49.98;102276.53;4866719;28;20536;-74
2023/09/07 11:29:17;;;;;;;5.90;4.47;;;;;;;26.87;49.77;102280.66;4883284;28;20063;-72
2023/09/07 11:31:43;;;;;;;5.63;4.10;;;;;;;26.91;50.63;102283.53;4900585;28;20090;-74
2023/09/07 11:34:14;;;;;;;7.28;4.10;;;;;;;26.81;49.09;102282.03;4883930;28;20028;-75
2023/09/07 11:36:40;;;;;;;6.10;4.45;;;;;;;26.87;49.23;102279.88;4878786;28;20036;-76
2023/09/07 11:39:12;;;;;;;4.95;3.83;;;;;;;26.91;50.00;102278.84;4862595;28;20408;-74
2023/09/07 11:41:42;;;;;;;5.32;4.22;;;;;;;26.97;51.19;102275.88;4867683;28;20052;-73